Time;durP1;ratioP1;P1;durP2;ratioP2;P2;SDS_P1;SDS_P2;PMS_P1;PMS_P2;Temp;Humidity;BMP_temperature;BMP_pressure;BME280_temperature;BME280_humidity;BME280_pressure;Samples;Min_cycle;Max_cycle;Signal;HPM_P1;HPM_P2
2021/03/22 06:32:10;;;;;;;20.57;9.15;;;;;;;-0.15;82.24;100009.80;1786148;76;26699;-54
2021/03/22 06:34:59;;;;;;;22.10;10.23;;;;;;;-0.05;82.14;100014.44;1799364;79;25415;-51
2021/03/22 06:37:34;;;;;;;20.03;9.17;;;;;;;0.07;82.63;100015.66;1800022;79;25543;-53
2021/03/22 06:40:27;;;;;;;21.37;10.32;;;;;;;0.19;82.39;100021.69;1799472;79;25583;-56
2021/03/22 06:43:13;;;;;;;20.62;10.30;;;;;;;0.28;82.03;100029.52;1799746;79;26894;-55
2021/03/22 06:45:44;;;;;;;20.45;10.65;;;;;;;0.40;82.22;100028.59;1784521;79;25470;-52
2021/03/22 06:48:27;;;;;;;23.22;9.93;;;;;;;0.51;82.28;100039.12;1799532;79;25581;-50
2021/03/22 06:51:11;;;;;;;21.05;10.03;;;;;;;0.65;82.17;100037.41;1799813;79;25553;-52
2021/03/22 06:53:45;;;;;;;23.92;10.03;;;;;;;0.82;82.56;100041.30;1799748;79;25518;-51
2021/03/22 06:56:29;;;;;;;25.20;9.58;;;;;;;0.97;82.28;100038.82;1788131;79;26602;-52
2021/03/22 06:59:17;;;;;;;18.35;9.55;;;;;;;1.17;83.08;100038.19;1785758;80;25520;-53
2021/03/22 07:01:47;;;;;;;19.20;9.13;;;;;;;1.37;82.45;100045.56;1781525;79;25498;-52
2021/03/22 07:04:26;;;;;;;19.52;9.33;;;;;;;1.54;82.08;100051.31;1781754;79;25612;-53
2021/03/22 07:07:21;;;;;;;18.35;10.10;;;;;;;1.67;81.73;100046.88;1783307;79;25592;-56
2021/03/22 07:09:58;;;;;;;23.57;10.32;;;;;;;1.79;81.52;100042.70;1787654;79;28088;-54
2021/03/22 07:12:40;;;;;;;21.30;9.73;;;;;;;2.02;82.00;100044.95;1795363;79;25563;-51
2021/03/22 07:15:30;;;;;;;24.30;10.08;;;;;;;2.22;81.53;100042.14;1799593;79;25523;-56
2021/03/22 07:18:21;;;;;;;17.75;9.78;;;;;;;2.45;81.73;100050.25;1799288;79;25504;-54
2021/03/22 07:21:09;;;;;;;15.88;8.73;;;;;;;2.64;81.00;100052.45;1799549;79;25505;-53
2021/03/22 07:23:53;;;;;;;22.00;9.73;;;;;;;2.89;81.89;100055.74;1799242;79;28032;-56
2021/03/22 07:26:39;;;;;;;19.02;9.60;;;;;;;3.20;81.80;100060.61;1799432;79;25572;-54
2021/03/22 07:30:04;;;;;;;21.70;8.98;;;;;;;3.64;81.57;100056.63;1888540;76;34955;-57
2021/03/22 07:32:48;;;;;;;23.98;11.33;;;;;;;3.83;81.50;100059.55;1859182;77;25646;-58
2021/03/22 07:35:42;;;;;;;24.95;12.07;;;;;;;4.06;79.96;100068.35;1859427;77;25762;-57
2021/03/22 07:38:43;;;;;;;22.70;9.93;;;;;;;4.24;79.21;100071.52;1859099;77;25736;-59
2021/03/22 07:41:30;;;;;;;23.83;11.48;;;;;;;4.41;78.11;100065.33;1859418;77;25629;-57
2021/03/22 07:44:04;;;;;;;24.20;10.58;;;;;;;4.57;77.59;100080.00;1858772;77;25530;-59
2021/03/22 07:47:06;;;;;;;21.25;10.72;;;;;;;4.84;77.29;100087.11;1858822;77;25464;-59
2021/03/22 07:49:52;;;;;;;22.93;10.80;;;;;;;5.23;76.98;100090.39;1849003;76;34568;-58
2021/03/22 07:52:32;;;;;;;21.12;10.72;;;;;;;5.36;75.99;100078.25;1818879;78;25300;-59
2021/03/22 07:55:31;;;;;;;22.10;10.53;;;;;;;5.60;76.20;100082.36;1818830;78;28173;-60
2021/03/22 07:58:18;;;;;;;17.50;9.60;;;;;;;5.70;75.41;100077.42;1818923;78;25560;-60
2021/03/22 08:01:04;;;;;;;20.37;10.13;;;;;;;5.61;73.68;100077.78;1819002;78;25553;-58
2021/03/22 08:03:59;;;;;;;22.58;10.65;;;;;;;5.50;73.47;100076.25;1805220;77;25571;-60
2021/03/22 08:07:11;;;;;;;24.67;11.33;;;;;;;5.43;73.09;100085.95;1817953;78;25544;-61
2021/03/22 08:10:26;;;;;;;22.77;11.03;;;;;;;5.33;72.37;100089.53;1816206;78;25694;-59
2021/03/22 08:13:18;;;;;;;26.55;13.78;;;;;;;5.21;71.83;100108.64;1808254;77;25527;-60
2021/03/22 08:16:19;;;;;;;26.30;11.48;;;;;;;5.07;72.01;100100.93;1805298;77;25826;-58
2021/03/22 08:18:57;;;;;;;23.38;11.03;;;;;;;5.05;71.97;100105.77;1795941;77;25592;-59
2021/03/22 08:21:38;;;;;;;20.08;10.60;;;;;;;5.23;72.06;100101.11;1807072;77;25499;-59
2021/03/22 08:24:31;;;;;;;27.82;11.43;;;;;;;5.41;72.55;100095.64;1806884;78;25757;-59
2021/03/22 08:27:20;;;;;;;17.23;9.20;;;;;;;5.73;72.71;100094.86;1814607;78;25531;-59
2021/03/22 08:30:13;;;;;;;17.98;9.00;;;;;;;5.82;70.82;100101.21;1804742;77;25618;-60
2021/03/22 08:33:07;;;;;;;22.02;10.08;;;;;;;5.77;69.65;100094.55;1805428;77;25502;-57
2021/03/22 08:35:58;;;;;;;19.77;9.20;;;;;;;5.59;69.31;100102.75;1786848;80;25572;-57
2021/03/22 08:38:39;;;;;;;22.17;10.98;;;;;;;5.79;70.32;100101.80;1786613;80;28086;-59
2021/03/22 08:41:10;;;;;;;19.70;10.15;;;;;;;6.70;72.62;100099.82;1786922;80;25772;-58
2021/03/22 08:43:58;;;;;;;21.15;9.63;;;;;;;7.77;72.91;100092.66;1783868;80;25659;-58
2021/03/22 08:46:36;;;;;;;16.85;9.10;;;;;;;8.47;71.90;100090.91;1756438;80;25369;-58
2021/03/22 08:49:14;;;;;;;14.75;7.85;;;;;;;8.96;69.35;100091.50;1792108;79;25526;-58
2021/03/22 08:51:41;;;;;;;15.98;7.55;;;;;;;9.54;68.56;100098.58;1790119;79;25710;-57
2021/03/22 08:54:15;;;;;;;9.98;5.75;;;;;;;10.00;67.18;100101.50;1795343;79;25544;-57
2021/03/22 08:57:02;;;;;;;12.47;6.42;;;;;;;10.02;65.47;100102.55;1795076;79;25550;-56
2021/03/22 08:59:29;;;;;;;13.78;6.75;;;;;;;9.71;63.41;100094.64;1794992;79;25573;-56
2021/03/22 09:02:19;;;;;;;13.32;6.42;;;;;;;9.30;62.71;100089.42;1818590;77;25382;-58
2021/03/22 09:04:46;;;;;;;9.68;4.90;;;;;;;9.04;62.89;100085.13;1827642;78;26723;-56
2021/03/22 09:07:18;;;;;;;11.63;5.42;;;;;;;8.63;61.95;100098.13;1827289;78;25255;-57
2021/03/22 09:09:47;;;;;;;8.95;4.92;;;;;;;8.29;62.41;100098.75;1827783;78;25427;-57
2021/03/22 09:12:42;;;;;;;12.50;6.20;;;;;;;8.18;62.92;100096.78;1827868;78;25288;-56
2021/03/22 09:15:42;;;;;;;9.65;5.35;;;;;;;8.58;64.86;100094.45;1827618;78;25620;-57
2021/03/22 09:18:14;;;;;;;13.43;6.30;;;;;;;9.00;64.06;100085.50;1815995;77;25959;-56
2021/03/22 09:20:55;;;;;;;16.12;5.53;;;;;;;9.49;63.86;100094.66;1811464;77;25640;-57
2021/03/22 09:23:36;;;;;;;10.45;5.05;;;;;;;9.41;61.99;100091.33;1827331;78;25448;-57
2021/03/22 09:26:07;;;;;;;9.48;4.80;;;;;;;9.14;61.22;100088.95;1827621;78;25492;-56
2021/03/22 09:28:44;;;;;;;8.40;4.45;;;;;;;9.00;61.62;100092.25;1826994;78;25285;-57
2021/03/22 09:31:16;;;;;;;8.33;3.75;;;;;;;8.91;61.45;100094.30;1822329;78;25693;-57
2021/03/22 09:34:05;;;;;;;10.58;5.28;;;;;;;8.85;61.03;100091.45;1825884;78;25537;-57
2021/03/22 09:36:39;;;;;;;8.83;3.35;;;;;;;9.06;61.74;100093.72;1825690;78;25575;-57
2021/03/22 09:39:18;;;;;;;7.35;3.72;;;;;;;9.83;62.49;100110.86;1826160;78;25450;-56
2021/03/22 09:42:17;;;;;;;10.75;4.47;;;;;;;10.37;60.98;100104.89;1826461;78;25487;-55
2021/03/22 09:45:01;;;;;;;10.27;4.43;;;;;;;11.08;60.84;100099.10;1826282;78;26765;-59
2021/03/22 09:47:39;;;;;;;11.55;4.40;;;;;;;11.62;58.21;100093.38;1821866;77;25528;-58
2021/03/22 09:50:24;;;;;;;8.70;4.15;;;;;;;12.06;58.20;100093.55;1844692;77;25536;-57
2021/03/22 09:52:59;;;;;;;7.30;3.72;;;;;;;12.55;57.30;100091.04;1849499;77;25596;-56
2021/03/22 09:55:31;;;;;;;8.50;4.20;;;;;;;12.73;56.38;100094.47;1849778;77;25598;-57
2021/03/22 09:58:02;;;;;;;7.35;4.10;;;;;;;12.79;54.79;100096.67;1777821;80;26136;-57
2021/03/22 10:00:42;;;;;;;9.35;5.05;;;;;;;12.61;53.70;100094.59;1734627;80;25564;-57
2021/03/22 10:03:30;;;;;;;5.53;3.75;;;;;;;12.74;53.96;100092.79;1733365;81;25328;-56
2021/03/22 10:06:01;;;;;;;11.12;6.10;;;;;;;12.92;53.42;100089.39;1725234;83;25747;-56
2021/03/22 10:08:37;;;;;;;10.80;5.35;;;;;;;13.45;52.38;100096.64;1725173;82;25292;-56
2021/03/22 10:11:26;;;;;;;10.53;4.90;;;;;;;14.29;52.74;100098.34;1725319;83;25972;-58
2021/03/22 10:14:00;;;;;;;10.50;5.23;;;;;;;15.23;51.08;100097.95;1725178;83;25692;-56
2021/03/22 10:16:41;;;;;;;7.40;3.58;;;;;;;16.37;51.20;100097.50;1706430;83;25615;-60
2021/03/22 10:19:16;;;;;;;8.28;4.20;;;;;;;17.54;49.69;100107.32;1725156;83;25283;-59
2021/03/22 10:21:57;;;;;;;9.40;4.15;;;;;;;18.43;47.21;100107.36;1724959;83;25588;-57
2021/03/22 10:24:37;;;;;;;9.90;3.98;;;;;;;18.98;44.00;100114.47;1725239;83;25819;-59
2021/03/22 10:27:21;;;;;;;6.90;3.70;;;;;;;19.29;44.01;100109.22;1725034;83;25550;-59
2021/03/22 10:29:47;;;;;;;7.92;3.40;;;;;;;20.06;43.58;100105.58;1725001;83;25496;-58
2021/03/22 10:32:22;;;;;;;5.03;3.00;;;;;;;20.95;42.21;100096.45;1725308;83;25536;-57
2021/03/22 10:35:11;;;;;;;6.00;3.60;;;;;;;21.62;42.46;100095.20;1727282;80;25520;-58
2021/03/22 10:37:56;;;;;;;4.75;3.00;;;;;;;22.51;41.52;100085.47;1740042;82;28076;-58
2021/03/22 10:40:37;;;;;;;8.45;3.55;;;;;;;23.29;40.38;100089.80;1740328;82;25666;-56
2021/03/22 10:43:06;;;;;;;8.33;3.77;;;;;;;23.32;39.27;100089.01;1740425;82;25454;-56
2021/03/22 10:45:38;;;;;;;6.40;3.12;;;;;;;22.77;37.53;100093.10;1740274;82;25445;-57
2021/03/22 10:48:30;;;;;;;7.22;3.15;;;;;;;22.48;36.63;100087.63;1740312;82;25579;-57
2021/03/22 10:51:08;;;;;;;5.62;2.95;;;;;;;22.30;36.00;100092.36;1739822;82;25989;-58
2021/03/22 10:53:38;;;;;;;9.65;3.35;;;;;;;22.51;36.10;100081.93;1739977;82;25483;-58
2021/03/22 10:56:21;;;;;;;7.55;3.33;;;;;;;22.98;35.48;100079.06;1734102;80;25519;-58
2021/03/22 10:58:48;;;;;;;8.65;2.60;;;;;;;22.94;33.44;100083.98;1731891;80;25555;-58
2021/03/22 11:01:17;;;;;;;6.37;3.67;;;;;;;21.85;32.14;100084.43;1693918;83;25613;-59
2021/03/22 11:03:49;;;;;;;8.65;4.10;;;;;;;21.72;32.30;100081.84;1696838;83;25729;-58
2021/03/22 11:06:14;;;;;;;7.80;3.63;;;;;;;21.94;32.97;100082.67;1721573;83;25488;-60
2021/03/22 11:08:44;;;;;;;4.85;3.33;;;;;;;22.47;33.51;100074.23;1720955;83;25552;-57
2021/03/22 11:11:17;;;;;;;6.47;2.80;;;;;;;22.89;33.02;100079.48;1757239;80;25259;-60
2021/03/22 11:13:51;;;;;;;3.08;2.25;;;;;;;22.24;32.42;100085.66;1777781;80;25505;-59
2021/03/22 11:16:31;;;;;;;7.65;2.58;;;;;;;20.73;31.07;100077.67;1799387;79;26766;-57
2021/03/22 11:19:02;;;;;;;5.12;2.45;;;;;;;20.47;32.03;100072.56;1778053;80;25766;-59
2021/03/22 11:21:29;;;;;;;6.20;2.50;;;;;;;19.47;31.39;100081.22;1797835;79;25443;-59
2021/03/22 11:23:57;;;;;;;8.18;2.87;;;;;;;18.02;31.40;100070.70;1763659;80;25461;-59
2021/03/22 11:26:28;;;;;;;7.15;2.25;;;;;;;16.83;32.39;100077.10;1782912;80;25330;-58
2021/03/22 11:29:18;;;;;;;4.72;2.22;;;;;;;15.81;32.55;100077.18;1754892;81;25747;-59
2021/03/22 11:31:49;;;;;;;4.67;1.90;;;;;;;15.16;34.26;100080.82;1782633;80;25601;-59
2021/03/22 11:34:34;;;;;;;3.83;1.75;;;;;;;15.59;35.13;100073.05;1782775;80;25573;-58
2021/03/22 11:37:22;;;;;;;4.35;1.80;;;;;;;15.96;34.89;100072.31;1725169;81;25298;-59
2021/03/22 11:40:00;;;;;;;3.72;1.92;;;;;;;15.82;34.40;100071.95;1782744;80;25515;-59
2021/03/22 11:42:57;;;;;;;5.25;2.40;;;;;;;15.69;34.29;100066.52;1833078;76;34725;-59
2021/03/22 11:45:38;;;;;;;7.00;2.00;;;;;;;15.26;34.30;100059.90;1819528;78;25431;-58
2021/03/22 11:48:28;;;;;;;6.35;1.80;;;;;;;15.08;34.86;100059.38;1817811;78;25800;-59
2021/03/22 11:51:02;;;;;;;6.58;1.32;;;;;;;15.52;35.27;100058.66;1818810;78;25605;-59
2021/03/22 11:53:29;;;;;;;3.85;1.65;;;;;;;16.00;35.04;100062.27;1818977;78;25565;-61
2021/03/22 11:56:15;;;;;;;7.00;1.92;;;;;;;16.64;34.24;100051.91;1819100;78;25627;-60
2021/03/22 11:58:43;;;;;;;3.67;1.75;;;;;;;16.80;33.61;100066.30;1807892;77;25599;-58
2021/03/22 12:01:23;;;;;;;4.42;2.25;;;;;;;16.42;33.15;100056.87;1839632;77;25790;-58
2021/03/22 12:04:04;;;;;;;3.27;1.80;;;;;;;15.90;32.55;100058.70;1760371;80;25775;-60
2021/03/22 12:06:35;;;;;;;9.23;2.20;;;;;;;15.36;32.69;100062.71;1782861;80;25500;-58
2021/03/22 12:09:12;;;;;;;4.80;2.30;;;;;;;14.86;32.80;100070.78;1759536;81;25487;-58
2021/03/22 12:11:38;;;;;;;5.15;2.12;;;;;;;14.53;33.73;100068.41;1765127;81;25596;-58
2021/03/22 12:14:05;;;;;;;3.70;1.82;;;;;;;14.45;33.78;100060.36;1764697;81;25720;-56
2021/03/22 12:16:35;;;;;;;3.47;1.85;;;;;;;14.39;34.22;100057.86;1764966;81;25440;-59
2021/03/22 12:19:21;;;;;;;6.65;2.27;;;;;;;14.24;33.69;100054.46;1764256;81;25475;-59
2021/03/22 12:21:49;;;;;;;4.92;2.00;;;;;;;13.81;33.44;100054.41;1736623;81;25360;-59
2021/03/22 12:24:18;;;;;;;5.08;2.12;;;;;;;13.20;32.66;100057.67;1764917;81;25521;-58
2021/03/22 12:26:45;;;;;;;4.42;1.55;;;;;;;12.54;32.49;100056.91;1764803;81;25788;-61
2021/03/22 12:29:12;;;;;;;3.10;2.08;;;;;;;11.87;32.37;100056.52;1764654;81;25487;-58
2021/03/22 12:31:44;;;;;;;5.20;2.42;;;;;;;11.32;33.38;100064.79;1772171;80;25462;-58
2021/03/22 12:34:21;;;;;;;5.67;1.90;;;;;;;11.03;34.27;100061.62;1792706;80;25774;-57
2021/03/22 12:36:50;;;;;;;6.37;1.75;;;;;;;10.79;34.88;100050.43;1792916;80;25444;-58
2021/03/22 12:39:24;;;;;;;9.67;2.20;;;;;;;10.52;34.84;100060.41;1783384;80;25768;-57
2021/03/22 12:42:02;;;;;;;4.33;2.30;;;;;;;10.22;35.27;100073.63;1782629;80;25314;-58
2021/03/22 12:44:29;;;;;;;4.17;2.05;;;;;;;9.81;35.28;100078.75;1785508;80;25557;-58
2021/03/22 12:46:56;;;;;;;4.12;2.20;;;;;;;9.38;36.01;100075.73;1783147;80;25572;-59
2021/03/22 12:49:25;;;;;;;7.15;3.10;;;;;;;9.06;36.36;100078.34;1786366;80;26263;-58
2021/03/22 12:51:52;;;;;;;4.22;2.22;;;;;;;8.78;36.98;100081.11;1775190;80;25828;-59
2021/03/22 12:54:19;;;;;;;8.30;2.60;;;;;;;8.49;37.29;100078.70;1753806;80;25613;-57
2021/03/22 12:56:46;;;;;;;10.00;2.85;;;;;;;8.27;37.82;100084.75;1757100;80;25669;-56
2021/03/22 12:59:38;;;;;;;4.12;2.05;;;;;;;8.10;38.37;100090.72;1780977;80;25598;-57
2021/03/22 13:02:35;;;;;;;4.30;2.08;;;;;;;7.95;38.87;100085.08;1744257;80;25572;-57
2021/03/22 13:05:02;;;;;;;2.50;1.70;;;;;;;7.85;39.24;100080.66;1586361;90;25845;-55
2021/03/22 13:07:29;;;;;;;4.53;2.35;;;;;;;7.79;39.64;100079.70;1618277;88;25668;-55
2021/03/22 13:09:56;;;;;;;7.83;2.77;;;;;;;7.75;39.97;100084.87;1617495;88;25731;-56
2021/03/22 13:12:28;;;;;;;3.20;2.00;;;;;;;7.80;40.69;100084.00;1616704;88;25608;-57
2021/03/22 13:14:57;;;;;;;4.53;2.42;;;;;;;8.32;41.82;100085.22;1618141;88;25543;-58
2021/03/22 13:17:33;;;;;;;7.00;2.58;;;;;;;8.83;41.25;100078.83;1618491;88;25960;-58
2021/03/22 13:20:04;;;;;;;5.22;2.58;;;;;;;9.09;40.18;100083.67;1618215;88;25564;-58
2021/03/22 13:22:31;;;;;;;3.80;1.90;;;;;;;9.11;39.75;100081.48;1618558;88;25558;-57
2021/03/22 13:25:00;;;;;;;7.92;1.90;;;;;;;9.00;39.26;100084.16;1618560;88;25575;-57
2021/03/22 13:27:29;;;;;;;4.28;2.22;;;;;;;8.86;39.44;100087.67;1617384;88;25389;-58
2021/03/22 13:29:56;;;;;;;8.55;2.12;;;;;;;8.70;38.89;100083.16;1618695;88;25742;-58
2021/03/22 13:32:23;;;;;;;5.22;1.90;;;;;;;8.69;40.23;100082.11;1618470;88;25391;-59
2021/03/22 13:34:50;;;;;;;4.53;2.12;;;;;;;9.16;40.29;100082.73;1617933;88;25629;-59
2021/03/22 13:37:20;;;;;;;2.08;1.50;;;;;;;9.71;39.90;100073.59;1618328;88;25678;-59
2021/03/22 13:39:48;;;;;;;3.62;1.40;;;;;;;10.20;40.01;100073.68;1618351;88;25385;-59
2021/03/22 13:42:16;;;;;;;4.65;2.02;;;;;;;10.68;38.17;100074.29;1665657;85;26010;-59
2021/03/22 13:44:42;;;;;;;3.05;1.75;;;;;;;11.01;37.01;100076.00;1677237;85;26268;-57
2021/03/22 13:47:10;;;;;;;5.67;1.85;;;;;;;11.50;37.76;100068.30;1677528;85;25634;-55
2021/03/22 13:49:37;;;;;;;3.40;1.75;;;;;;;11.93;37.35;100071.50;1677340;85;25531;-58
2021/03/22 13:52:08;;;;;;;2.25;1.35;;;;;;;12.38;35.67;100062.08;1677647;85;25428;-58
2021/03/22 13:54:35;;;;;;;2.90;1.52;;;;;;;12.55;35.55;100069.34;1677699;85;25785;-57
2021/03/22 13:57:04;;;;;;;5.00;1.87;;;;;;;12.58;35.42;100071.41;1677594;85;25535;-59
2021/03/22 13:59:32;;;;;;;5.65;1.90;;;;;;;12.35;34.93;100064.90;1677591;85;25409;-57
2021/03/22 14:01:59;;;;;;;4.80;2.77;;;;;;;11.77;34.33;100074.70;1677571;85;25531;-58
2021/03/22 14:04:28;;;;;;;3.50;2.33;;;;;;;11.36;35.10;100073.31;1691700;83;25570;-58
2021/03/22 14:06:56;;;;;;;3.92;2.22;;;;;;;10.97;35.35;100073.70;1698288;84;26673;-58
2021/03/22 14:09:23;;;;;;;3.98;1.65;;;;;;;10.59;35.49;100081.56;1698034;84;25592;-56
2021/03/22 14:11:54;;;;;;;6.92;2.17;;;;;;;10.23;36.05;100073.06;1697882;84;25567;-56
2021/03/22 14:14:20;;;;;;;3.20;2.20;;;;;;;10.12;36.96;100082.57;1697891;84;25542;-59
2021/03/22 14:16:47;;;;;;;3.52;2.17;;;;;;;10.01;37.12;100082.84;1697902;84;25560;-56
2021/03/22 14:19:14;;;;;;;3.72;2.25;;;;;;;9.84;37.10;100078.67;1697757;84;25769;-57
2021/03/22 14:21:41;;;;;;;7.60;3.25;;;;;;;9.68;37.34;100090.41;1697874;83;25733;-58
2021/03/22 14:24:09;;;;;;;5.53;2.50;;;;;;;9.48;37.32;100092.52;1694034;84;25574;-58
2021/03/22 14:26:36;;;;;;;7.90;2.40;;;;;;;9.28;37.27;100089.73;1683893;83;25365;-58
2021/03/22 14:29:03;;;;;;;7.65;3.27;;;;;;;9.18;38.13;100089.96;1685166;84;25279;-58
2021/03/22 14:31:30;;;;;;;4.90;2.30;;;;;;;9.11;38.31;100093.07;1685192;84;25997;-58
2021/03/22 14:34:03;;;;;;;4.22;2.05;;;;;;;9.02;38.26;100088.13;1683206;84;25605;-58
2021/03/22 14:36:32;;;;;;;3.17;1.75;;;;;;;8.99;38.65;100088.77;1682239;84;25569;-59
2021/03/22 14:39:01;;;;;;;4.70;2.58;;;;;;;9.24;39.26;100090.07;1683743;83;25595;-58
2021/03/22 14:41:30;;;;;;;4.70;1.95;;;;;;;9.62;38.89;100092.98;1684644;84;25534;-58
2021/03/22 14:43:58;;;;;;;3.15;2.27;;;;;;;9.98;38.88;100092.13;1683183;84;26637;-57
2021/03/22 14:46:25;;;;;;;4.92;2.00;;;;;;;10.09;37.76;100094.78;1682297;83;25654;-57
2021/03/22 14:48:52;;;;;;;4.50;1.40;;;;;;;10.07;37.05;100097.80;1680867;83;25678;-58
2021/03/22 14:51:19;;;;;;;2.67;1.35;;;;;;;9.84;36.25;100095.69;1678150;82;25284;-55
2021/03/22 14:53:48;;;;;;;2.10;1.57;;;;;;;9.60;36.99;100101.95;1681845;85;25290;-56
2021/03/22 14:56:16;;;;;;;4.87;1.60;;;;;;;9.22;37.04;100100.94;1681588;85;26892;-57
2021/03/22 14:58:42;;;;;;;4.47;2.20;;;;;;;8.87;37.69;100100.07;1681815;85;25368;-57
2021/03/22 15:01:10;;;;;;;6.92;2.83;;;;;;;8.74;38.63;100101.67;1681669;85;25298;-57
2021/03/22 15:03:38;;;;;;;5.47;2.55;;;;;;;8.69;38.80;100096.38;1681346;84;25426;-58
2021/03/22 15:06:04;;;;;;;4.20;2.40;;;;;;;8.67;39.05;100096.45;1681839;84;25549;-58
2021/03/22 15:08:31;;;;;;;10.80;2.65;;;;;;;8.60;39.69;100098.19;1681776;85;25827;-57
2021/03/22 15:10:57;;;;;;;8.30;3.80;;;;;;;8.61;39.59;100098.42;1681520;85;25532;-57
2021/03/22 15:13:25;;;;;;;4.95;2.45;;;;;;;8.63;39.92;100100.83;1697901;84;25644;-58
2021/03/22 15:15:52;;;;;;;12.50;5.85;;;;;;;8.71;39.91;100102.82;1669087;86;25546;-57
2021/03/22 15:18:23;;;;;;;6.85;3.58;;;;;;;8.77;38.91;100104.33;1700425;84;25603;-57
2021/03/22 15:20:50;;;;;;;4.30;2.60;;;;;;;8.73;39.29;100103.31;1698187;83;26631;-56
2021/03/22 15:23:28;;;;;;;6.72;2.40;;;;;;;8.63;39.05;100102.96;1681612;84;25649;-56
2021/03/22 15:25:57;;;;;;;2.55;2.05;;;;;;;8.59;39.15;100108.16;1669731;85;25537;-56
2021/03/22 15:28:28;;;;;;;5.05;2.52;;;;;;;8.52;39.73;100109.67;1670058;85;25274;-54
2021/03/22 15:30:57;;;;;;;5.00;2.77;;;;;;;8.50;39.42;100111.31;1670272;85;25310;-55
2021/03/22 15:33:35;;;;;;;6.55;2.80;;;;;;;8.38;40.08;100113.68;1670120;85;26862;-56
2021/03/22 15:36:15;;;;;;;5.90;2.70;;;;;;;8.29;39.52;100105.49;1669881;85;25553;-56
2021/03/22 15:38:42;;;;;;;9.40;2.80;;;;;;;8.20;40.08;100109.95;1669962;85;25567;-56
2021/03/22 15:41:13;;;;;;;8.73;3.72;;;;;;;8.12;40.65;100118.19;1690657;84;25572;-56
2021/03/22 15:43:40;;;;;;;5.05;3.20;;;;;;;7.98;40.65;100108.70;1697576;83;25484;-56
2021/03/22 15:46:09;;;;;;;6.25;2.98;;;;;;;7.95;41.08;100120.09;1696823;83;26887;-57
2021/03/22 15:48:37;;;;;;;7.20;2.95;;;;;;;7.87;41.07;100120.77;1697474;84;25450;-57
2021/03/22 15:51:06;;;;;;;4.37;2.15;;;;;;;7.80;41.57;100121.14;1697619;83;25533;-57
2021/03/22 15:53:33;;;;;;;9.80;2.40;;;;;;;7.72;40.98;100115.07;1697125;84;25657;-56
2021/03/22 15:56:00;;;;;;;4.40;2.45;;;;;;;7.66;41.74;100114.89;1697248;83;25763;-56
2021/03/22 15:58:26;;;;;;;8.08;2.10;;;;;;;7.56;41.02;100114.52;1697486;84;26070;-56
2021/03/22 16:00:52;;;;;;;6.03;2.52;;;;;;;7.45;40.91;100113.06;1698178;83;25473;-55
2021/03/22 16:03:21;;;;;;;5.00;2.40;;;;;;;7.32;41.13;100117.83;1698365;84;25350;-56
2021/03/22 16:05:52;;;;;;;4.80;2.27;;;;;;;7.19;41.15;100119.38;1698388;83;25318;-55
2021/03/22 16:08:23;;;;;;;9.58;3.12;;;;;;;7.06;41.75;100110.12;1698389;83;25270;-56
2021/03/22 16:10:50;;;;;;;5.00;2.22;;;;;;;6.89;41.85;100114.08;1698341;84;26831;-56
2021/03/22 16:13:25;;;;;;;5.22;2.17;;;;;;;6.78;41.70;100113.97;1698362;83;25593;-56
2021/03/22 16:15:53;;;;;;;3.98;2.40;;;;;;;6.64;42.17;100111.70;1692664;84;25323;-56
2021/03/22 16:18:21;;;;;;;7.70;2.45;;;;;;;6.48;42.26;100116.47;1698371;83;25339;-56
2021/03/22 16:20:51;;;;;;;8.18;2.83;;;;;;;6.36;42.82;100120.89;1698404;84;25527;-56
2021/03/22 16:23:22;;;;;;;4.33;2.25;;;;;;;6.22;42.78;100124.80;1698405;84;26190;-55
2021/03/22 16:25:50;;;;;;;7.97;2.67;;;;;;;6.08;43.02;100127.34;1698338;83;25253;-54
2021/03/22 16:28:21;;;;;;;5.70;2.10;;;;;;;5.95;43.45;100130.09;1687492;83;25554;-54
2021/03/22 16:30:49;;;;;;;7.83;2.62;;;;;;;5.82;43.25;100133.42;1681757;83;25095;-58
2021/03/22 16:33:21;;;;;;;3.77;2.40;;;;;;;5.71;43.47;100130.58;1686239;83;25305;-55
2021/03/22 16:35:51;;;;;;;8.20;2.72;;;;;;;5.60;43.32;100136.02;1682936;83;26911;-56
2021/03/22 16:38:20;;;;;;;;;;;;;;;5.50;43.50;100142.80;1692302;83;25311;-58
2021/03/22 16:40:51;;;;;;;6.42;2.30;;;;;;;5.42;43.78;100140.70;1697898;83;25502;-57
2021/03/22 16:43:22;;;;;;;11.68;3.15;;;;;;;5.30;43.57;100137.56;1697677;84;25365;-56
2021/03/22 16:45:53;;;;;;;5.92;2.77;;;;;;;5.21;43.97;100142.67;1698518;84;25342;-56
2021/03/22 16:48:23;;;;;;;8.08;2.92;;;;;;;5.10;44.08;100137.12;1697438;84;25800;-54
2021/03/22 16:50:50;;;;;;;10.65;3.50;;;;;;;5.04;44.15;100143.85;1698369;83;25326;-55
2021/03/22 16:53:18;;;;;;;8.58;3.83;;;;;;;5.00;44.39;100146.80;1697704;84;25668;-55
2021/03/22 16:55:46;;;;;;;11.22;3.60;;;;;;;4.97;44.47;100149.23;1697208;84;25726;-52
2021/03/22 16:58:14;;;;;;;9.95;3.30;;;;;;;4.90;44.52;100150.87;1697865;83;25310;-55
2021/03/22 17:00:42;;;;;;;5.43;2.60;;;;;;;4.83;44.66;100155.73;1698028;83;26549;-55
2021/03/22 17:03:10;;;;;;;5.70;2.77;;;;;;;4.77;44.65;100153.61;1697651;84;25633;-52
2021/03/22 17:05:40;;;;;;;5.12;2.98;;;;;;;4.72;44.76;100154.17;1720857;83;25449;-54
2021/03/22 17:08:10;;;;;;;9.03;3.72;;;;;;;4.66;44.86;100151.48;1694573;84;25522;-56
2021/03/22 17:10:42;;;;;;;9.55;3.70;;;;;;;4.59;44.98;100156.33;1681227;85;25344;-52
2021/03/22 17:13:11;;;;;;;9.95;4.20;;;;;;;4.51;45.21;100157.42;1708516;84;25736;-52
2021/03/22 17:15:38;;;;;;;16.73;3.90;;;;;;;4.43;45.27;100164.16;1709569;83;25275;-56
2021/03/22 17:18:05;;;;;;;8.95;4.25;;;;;;;4.36;45.59;100162.27;1709631;83;25262;-55
2021/03/22 17:20:32;;;;;;;12.63;6.37;;;;;;;4.28;45.47;100167.11;1709569;83;25476;-52
2021/03/22 17:23:03;;;;;;;15.23;5.80;;;;;;;4.22;45.70;100174.07;1709668;84;25340;-53
2021/03/22 17:25:43;;;;;;;14.95;6.15;;;;;;;4.13;45.79;100168.45;1709561;83;25713;-54
2021/03/22 17:28:12;;;;;;;9.35;5.12;;;;;;;4.05;45.92;100175.17;1709518;83;25429;-57
2021/03/22 17:30:41;;;;;;;9.40;5.47;;;;;;;3.98;46.17;100175.16;1709819;83;25514;-56
2021/03/22 17:33:10;;;;;;;13.05;5.65;;;;;;;3.90;46.22;100178.64;1709640;84;25285;-54
2021/03/22 17:35:37;;;;;;;14.10;6.75;;;;;;;3.85;46.46;100177.84;1709840;83;25293;-56
2021/03/22 17:38:04;;;;;;;12.40;6.80;;;;;;;3.77;46.62;100180.50;1709538;84;25925;-56
2021/03/22 17:40:35;;;;;;;20.77;7.30;;;;;;;3.73;46.65;100184.78;1709582;84;25569;-56
2021/03/22 17:43:03;;;;;;;14.15;6.00;;;;;;;3.66;46.98;100191.73;1709670;83;25499;-55
2021/03/22 17:45:34;;;;;;;11.90;7.03;;;;;;;3.59;47.26;100188.48;1709507;84;25258;-54
2021/03/22 17:48:01;;;;;;;21.02;7.50;;;;;;;3.54;47.43;100191.15;1709633;84;25344;-56
2021/03/22 17:50:31;;;;;;;19.05;7.50;;;;;;;3.48;47.37;100189.00;1709548;84;25720;-56
2021/03/22 17:53:17;;;;;;;21.30;8.50;;;;;;;3.42;47.62;100195.94;1709607;83;25480;-56
2021/03/22 17:55:45;;;;;;;14.33;7.53;;;;;;;3.37;48.03;100198.05;1709648;84;25297;-55
2021/03/22 17:58:12;;;;;;;15.10;8.38;;;;;;;3.31;48.20;100198.58;1709636;83;25525;-56
2021/03/22 18:00:38;;;;;;;16.15;8.30;;;;;;;3.27;48.53;100205.53;1709591;84;25560;-56
2021/03/22 18:03:06;;;;;;;21.48;8.75;;;;;;;3.24;48.57;100208.72;1709610;84;27122;-56
2021/03/22 18:05:35;;;;;;;14.68;7.58;;;;;;;3.20;48.78;100198.27;1704624;82;25297;-56
2021/03/22 18:08:04;;;;;;;13.20;7.78;;;;;;;3.20;48.89;100197.47;1698505;84;25440;-55
2021/03/22 18:10:37;;;;;;;16.37;7.30;;;;;;;3.16;49.08;100197.98;1698530;84;25514;-57
2021/03/22 18:13:02;;;;;;;13.95;6.55;;;;;;;3.13;49.10;100207.06;1689475;82;25626;-58
2021/03/22 18:15:30;;;;;;;17.10;7.73;;;;;;;3.13;49.42;100213.23;1683072;84;25740;-57
2021/03/22 18:17:56;;;;;;;22.60;9.03;;;;;;;3.11;49.59;100216.68;1676561;84;25747;-55
2021/03/22 18:20:26;;;;;;;35.63;15.83;;;;;;;3.11;49.64;100220.69;1670093;85;25578;-54
2021/03/22 18:22:53;;;;;;;24.80;10.38;;;;;;;3.10;49.70;100220.95;1677749;82;25686;-56
2021/03/22 18:25:24;;;;;;;17.25;9.20;;;;;;;3.09;49.82;100222.83;1688727;82;25270;-55
2021/03/22 18:27:50;;;;;;;22.25;8.58;;;;;;;3.10;49.83;100224.95;1677317;84;25951;-55
2021/03/22 18:30:21;;;;;;;19.90;8.15;;;;;;;3.09;50.07;100227.37;1683633;84;25584;-54
2021/03/22 18:32:49;;;;;;;22.30;7.80;;;;;;;3.07;49.97;100231.64;1680403;84;25629;-56